PVG weather

Shanghai Pudong International Airport
Shanghai, Shanghai Municipality, China

Public forecast

Using degrees Celsius for public forecast. Weather courtesy of forecast.io.

Current aviation weather report (METAR) for Shanghai Pudong International Airport

Retrieved 2019/10/22 16:30 UTC (0 seconds ago):

ZSPD 221630Z 36005MPS CAVOK 19/16 Q1016 NOSIG

Aviation forecast (TAF) for Shanghai Pudong International Airport

Retrieved 2019/10/22 12:03 UTC (4 hours ago):

TAF TAF ZSPD 220911Z 2212/2312 03004MPS 6000 BKN016 TX23/2306Z TN16/2221Z